createdAt,value
2023-02-21T00:01:16.688Z,3.20
2023-02-21T00:05:37.533Z,2.53
2023-02-21T00:09:58.247Z,2.67
2023-02-21T00:14:19.800Z,2.60
2023-02-21T00:18:40.330Z,2.42
2023-02-21T00:23:00.410Z,2.53
2023-02-21T00:27:20.544Z,1.80
2023-02-21T00:31:42.852Z,2.70
2023-02-21T00:36:03.446Z,2.22
2023-02-21T00:40:24.701Z,2.17
2023-02-21T00:44:44.963Z,2.42
2023-02-21T00:49:06.880Z,1.55
2023-02-21T00:57:47.798Z,2.33
2023-02-21T01:02:08.030Z,1.70
2023-02-21T01:06:32.179Z,2.63
2023-02-21T01:10:52.759Z,2.60
2023-02-21T01:15:13.005Z,2.08
2023-02-21T01:19:33.897Z,2.08
2023-02-21T01:23:55.800Z,3.03
2023-02-21T01:28:15.884Z,2.10
2023-02-21T01:32:36.677Z,2.50
2023-02-21T01:37:00.362Z,2.00
2023-02-21T01:41:23.771Z,2.13
2023-02-21T01:46:05.592Z,1.98
2023-02-21T01:50:30.752Z,1.80
2023-02-21T01:54:54.877Z,1.33
2023-02-21T01:59:20.135Z,1.30
2023-02-21T02:03:40.912Z,1.20
2023-02-21T02:08:04.725Z,1.40
2023-02-21T02:12:36.033Z,1.48
2023-02-21T02:16:45.635Z,1.40
2023-02-21T02:25:22.969Z,1.48
2023-02-21T02:29:50.831Z,1.60
2023-02-21T02:38:23.906Z,1.40
2023-02-21T02:42:40.299Z,1.85
2023-02-21T02:46:47.091Z,1.77
2023-02-21T02:50:52.464Z,1.35
2023-02-21T02:55:05.111Z,1.80
2023-02-21T02:59:16.785Z,1.70
2023-02-21T03:03:39.868Z,1.65
2023-02-21T03:07:52.260Z,1.30
2023-02-21T03:12:02.926Z,1.63
2023-02-21T03:16:14.049Z,1.50
2023-02-21T03:20:18.619Z,1.80
2023-02-21T03:24:23.103Z,1.33
2023-02-21T03:28:28.408Z,1.23
2023-02-21T03:32:34.506Z,1.60
2023-02-21T03:36:39.694Z,1.73
2023-02-21T03:40:42.865Z,1.30
2023-02-21T03:48:49.910Z,1.10
2023-02-21T03:52:53.107Z,1.40
2023-02-21T03:56:56.258Z,1.10
2023-02-21T04:01:00.970Z,1.70
2023-02-21T04:05:04.562Z,1.33
2023-02-21T04:09:10.197Z,1.17
2023-02-21T04:13:16.110Z,1.20
2023-02-21T04:17:20.624Z,1.55
2023-02-21T04:21:23.822Z,1.70
2023-02-21T04:25:26.815Z,1.70
2023-02-21T04:29:30.054Z,1.50
2023-02-21T04:33:34.783Z,2.00
2023-02-21T04:37:38.064Z,1.75
2023-02-21T04:41:41.432Z,1.60
2023-02-21T04:49:52.795Z,2.95
2023-02-21T04:53:56.851Z,2.38
2023-02-21T04:58:00.885Z,1.40
2023-02-21T05:02:06.113Z,3.50
2023-02-21T05:06:10.556Z,2.80
2023-02-21T05:10:13.927Z,2.67
2023-02-21T05:14:18.515Z,4.53
2023-02-21T05:18:28.409Z,2.75
2023-02-21T05:22:32.918Z,1.67
2023-02-21T05:26:38.475Z,2.33
2023-02-21T05:30:41.451Z,1.75
2023-02-21T05:34:47.948Z,2.50
2023-02-21T05:38:54.667Z,2.03
2023-02-21T05:42:57.694Z,1.88
2023-02-21T05:47:02.540Z,4.18
2023-02-21T05:51:05.698Z,4.22
2023-02-21T05:55:10.296Z,1.70
2023-02-21T05:59:15.980Z,2.28
2023-02-21T06:03:19.029Z,2.90
2023-02-21T06:07:22.100Z,3.40
2023-02-21T06:11:33.509Z,6.82
2023-02-21T06:15:36.744Z,2.83
2023-02-21T06:19:39.830Z,1.83
2023-02-21T06:23:42.830Z,2.20
2023-02-21T06:27:47.353Z,1.98
2023-02-21T06:31:52.457Z,3.00
2023-02-21T06:35:55.758Z,2.10
2023-02-21T06:39:58.726Z,2.13
2023-02-21T06:44:03.149Z,2.33
2023-02-21T06:48:08.486Z,2.50
2023-02-21T06:52:12.813Z,2.47
2023-02-21T06:56:16.080Z,1.98
2023-02-21T07:00:22.189Z,1.90
2023-02-21T07:04:25.679Z,1.80
2023-02-21T07:08:28.588Z,1.77
2023-02-21T07:12:31.528Z,2.78
2023-02-21T07:16:35.866Z,2.40
2023-02-21T07:20:41.580Z,2.22
2023-02-21T07:24:47.212Z,2.00
2023-02-21T07:28:50.911Z,2.28
2023-02-21T07:41:04.822Z,2.53
2023-02-21T07:45:08.270Z,1.83
2023-02-21T07:49:12.596Z,2.50
2023-02-21T07:53:17.092Z,2.13
2023-02-21T07:57:20.463Z,1.88
2023-02-21T08:01:26.218Z,1.55
2023-02-21T08:05:33.886Z,1.73
2023-02-21T08:09:40.073Z,2.88
2023-02-21T08:13:43.059Z,1.92
2023-02-21T08:17:46.200Z,2.50
2023-02-21T08:21:51.303Z,2.22
2023-02-21T08:25:54.335Z,2.70
2023-02-21T08:29:57.389Z,2.08
2023-02-21T08:34:00.408Z,1.80
2023-02-21T08:38:05.206Z,2.47
2023-02-21T08:42:08.365Z,1.77
2023-02-21T08:46:11.339Z,1.52
2023-02-21T08:50:15.302Z,1.40
2023-02-21T08:54:19.797Z,3.35
2023-02-21T08:58:22.973Z,1.73
2023-02-21T09:02:27.337Z,2.60
2023-02-21T09:06:30.801Z,2.47
2023-02-21T09:14:39.686Z,2.35
2023-02-21T09:18:42.854Z,2.22
2023-02-21T09:22:48.938Z,2.58
2023-02-21T09:26:55.509Z,3.00
2023-02-21T09:30:58.753Z,2.97
2023-02-21T09:39:06.753Z,1.88
2023-02-21T09:43:16.515Z,3.13
2023-02-21T09:47:28.334Z,1.73
2023-02-21T09:51:32.720Z,2.13
2023-02-21T09:55:41.421Z,2.33
2023-02-21T09:59:46.512Z,2.33
2023-02-21T10:03:58.962Z,2.33
2023-02-21T10:08:10.760Z,3.03
2023-02-21T10:12:26.160Z,2.08
2023-02-21T10:16:38.934Z,2.10
2023-02-21T10:20:46.982Z,3.05
2023-02-21T10:24:50.776Z,2.45
2023-02-21T10:28:56.931Z,2.67
2023-02-21T10:33:06.843Z,2.28
2023-02-21T10:37:27.681Z,2.38
2023-02-21T10:41:32.643Z,2.78
2023-02-21T10:45:46.627Z,1.80
2023-02-21T10:49:59.737Z,2.85
2023-02-21T10:54:21.962Z,3.15
2023-02-21T10:58:29.445Z,2.60
2023-02-21T11:02:35.987Z,2.10
2023-02-21T11:06:45.885Z,3.00
2023-02-21T11:10:56.632Z,2.30
2023-02-21T11:15:17.770Z,2.28
2023-02-21T11:19:22.362Z,3.10
2023-02-21T11:23:29.751Z,2.03
2023-02-21T11:27:36.287Z,2.15
2023-02-21T11:31:41.632Z,2.53
2023-02-21T11:35:48.378Z,2.33
2023-02-21T11:39:53.870Z,1.83
2023-02-21T11:43:58.041Z,2.08
2023-02-21T11:48:06.670Z,2.70
2023-02-21T11:52:13.467Z,2.85
2023-02-21T11:56:33.160Z,3.38
2023-02-21T12:01:08.380Z,2.55
2023-02-21T12:05:32.218Z,2.63
2023-02-21T12:09:46.401Z,2.42
2023-02-21T12:14:02.862Z,2.40
2023-02-21T12:18:25.019Z,2.35
2023-02-21T12:22:45.689Z,2.28
2023-02-21T12:26:56.828Z,2.60
2023-02-21T12:31:13.967Z,2.25
2023-02-21T12:36:06.079Z,2.60
2023-02-21T12:40:21.912Z,2.10
2023-02-21T12:44:39.365Z,2.97
2023-02-21T12:48:49.903Z,2.15
2023-02-21T12:53:03.231Z,2.70
2023-02-21T12:57:12.719Z,3.03
2023-02-21T13:05:35.246Z,3.33
2023-02-21T13:09:44.846Z,3.15
2023-02-21T13:13:48.923Z,2.15
2023-02-21T13:17:58.366Z,2.45
2023-02-21T13:22:14.850Z,2.70
2023-02-21T13:26:42.074Z,2.45
2023-02-21T13:30:51.939Z,3.75
2023-02-21T13:35:00.844Z,2.65
2023-02-21T13:39:16.857Z,2.72
2023-02-21T13:43:25.759Z,3.60
2023-02-21T13:47:28.625Z,3.33
2023-02-21T13:51:48.961Z,2.20
2023-02-21T13:56:40.710Z,2.72
2023-02-21T14:01:18.380Z,2.95
2023-02-21T14:05:25.133Z,2.20
2023-02-21T14:09:28.470Z,2.50
2023-02-21T14:13:36.635Z,3.03
2023-02-21T14:17:39.578Z,2.63
2023-02-21T14:25:58.493Z,3.45
2023-02-21T14:30:37.512Z,3.08
2023-02-21T14:34:50.092Z,4.05
2023-02-21T14:38:58.723Z,3.70
2023-02-21T14:43:21.844Z,4.70
2023-02-21T14:47:42.415Z,4.05
2023-02-21T14:52:19.010Z,3.25
2023-02-21T14:56:48.611Z,3.30
2023-02-21T15:01:05.410Z,3.30
2023-02-21T15:05:18.149Z,3.03
2023-02-21T15:09:23.159Z,2.70
2023-02-21T15:13:29.796Z,2.92
2023-02-21T15:17:32.378Z,3.08
2023-02-21T15:25:41.878Z,2.60
2023-02-21T15:29:47.021Z,2.10
2023-02-21T15:33:54.758Z,5.40
2023-02-21T15:38:00.535Z,2.97
2023-02-21T15:42:07.245Z,3.80
2023-02-21T15:46:14.942Z,3.45
2023-02-21T15:50:25.989Z,3.88
2023-02-21T15:54:32.511Z,4.00
2023-02-21T15:58:36.088Z,3.60
2023-02-21T16:02:39.180Z,3.95
2023-02-21T16:06:48.929Z,4.80
2023-02-21T16:10:53.768Z,4.05
2023-02-21T16:15:00.383Z,3.42
2023-02-21T16:19:03.873Z,3.00
2023-02-21T16:23:25.788Z,4.75
2023-02-21T16:27:29.840Z,2.47
2023-02-21T16:31:36.969Z,3.97
2023-02-21T16:35:43.643Z,4.68
2023-02-21T16:39:46.743Z,3.08
2023-02-21T16:43:51.057Z,3.90
2023-02-21T16:47:58.395Z,4.72
2023-02-21T16:52:04.266Z,3.70
2023-02-21T16:56:09.889Z,5.80
2023-02-21T17:00:19.891Z,4.10
2023-02-21T17:08:28.555Z,4.95
2023-02-21T17:12:30.924Z,4.47
2023-02-21T17:16:34.988Z,4.05
2023-02-21T17:20:38.140Z,4.43
2023-02-21T17:24:43.567Z,4.45
2023-02-21T17:28:46.569Z,3.80
2023-02-21T17:32:52.220Z,4.55
2023-02-21T17:36:55.380Z,4.93
2023-02-21T17:40:59.910Z,4.80
2023-02-21T17:45:04.354Z,3.88
2023-02-21T17:49:08.614Z,4.28
2023-02-21T17:53:11.127Z,4.15
2023-02-21T17:57:14.262Z,3.80
2023-02-21T18:01:19.230Z,4.10
2023-02-21T18:05:24.343Z,4.45
2023-02-21T18:09:27.389Z,3.53
2023-02-21T18:13:30.156Z,4.68
2023-02-21T18:17:33.131Z,4.35
2023-02-21T18:21:41.423Z,4.50
2023-02-21T18:25:44.738Z,5.03
2023-02-21T18:29:54.642Z,3.13
2023-02-21T18:33:57.394Z,3.70
2023-02-21T18:38:01.905Z,3.83
2023-02-21T18:42:07.086Z,3.40
2023-02-21T18:46:12.375Z,3.00
2023-02-21T18:50:15.427Z,4.90
2023-02-21T18:54:21.405Z,4.20
2023-02-21T18:58:24.707Z,4.20
2023-02-21T19:02:28.447Z,4.10
2023-02-21T19:06:33.806Z,4.32
2023-02-21T19:10:38.585Z,4.20
2023-02-21T19:14:42.241Z,4.07
2023-02-21T19:18:47.935Z,4.13
2023-02-21T19:26:57.436Z,4.35
2023-02-21T19:31:01.048Z,4.03
2023-02-21T19:35:04.962Z,2.90
2023-02-21T19:39:09.230Z,4.07
2023-02-21T19:43:13.657Z,3.88
2023-02-21T19:47:17.046Z,4.07
2023-02-21T19:51:22.130Z,4.80
2023-02-21T19:55:25.982Z,4.57
2023-02-21T19:59:30.376Z,4.05
2023-02-21T20:03:34.246Z,5.18
2023-02-21T20:07:37.215Z,3.97
2023-02-21T20:11:40.591Z,4.05
2023-02-21T20:15:45.124Z,3.20
2023-02-21T20:19:54.098Z,3.53
2023-02-21T20:23:58.104Z,3.33
2023-02-21T20:28:01.437Z,4.80
2023-02-21T20:32:07.338Z,3.90
2023-02-21T20:36:10.838Z,3.97
2023-02-21T20:40:16.074Z,3.47
2023-02-21T20:44:19.097Z,3.60
2023-02-21T20:48:25.722Z,4.57
2023-02-21T20:52:28.833Z,3.72
2023-02-21T20:56:34.009Z,4.15
2023-02-21T21:00:37.991Z,4.72
2023-02-21T21:04:45.982Z,3.75
2023-02-21T21:08:49.342Z,3.38
2023-02-21T21:13:04.712Z,5.55
2023-02-21T21:17:10.241Z,4.20
2023-02-21T21:21:19.012Z,4.40
2023-02-21T21:25:26.196Z,5.38
2023-02-21T21:29:32.568Z,4.75
2023-02-21T21:33:35.750Z,3.70
2023-02-21T21:41:46.639Z,4.03
2023-02-21T21:45:49.496Z,4.63
2023-02-21T21:49:52.731Z,5.00
2023-02-21T21:58:01.763Z,4.68
2023-02-21T22:02:07.588Z,3.90
2023-02-21T22:06:13.478Z,4.38
2023-02-21T22:10:19.267Z,4.55
2023-02-21T22:14:23.555Z,5.43
2023-02-21T22:18:26.336Z,5.30
2023-02-21T22:22:29.245Z,4.72
2023-02-21T22:26:33.567Z,5.43
2023-02-21T22:30:37.180Z,4.93
2023-02-21T22:34:40.908Z,4.35
2023-02-21T22:38:47.664Z,3.90
2023-02-21T22:42:52.729Z,4.07
2023-02-21T22:46:58.884Z,4.22
2023-02-21T22:51:01.986Z,4.88
2023-02-21T22:55:05.656Z,4.53
2023-02-21T23:03:16.643Z,3.78
2023-02-21T23:07:21.518Z,5.50
2023-02-21T23:11:25.086Z,6.88
2023-02-21T23:19:32.407Z,7.57
2023-02-21T23:23:35.974Z,7.35
2023-02-21T23:27:41.377Z,6.75
2023-02-21T23:31:46.092Z,5.80
2023-02-21T23:35:51.976Z,5.38
2023-02-21T23:39:54.846Z,5.20
2023-02-21T23:44:00.760Z,5.65
2023-02-21T23:48:08.155Z,5.13
2023-02-21T23:52:12.407Z,5.72
2023-02-21T23:56:15.177Z,4.28
